createdAt,value
2022-09-12T00:01:38.925Z,59.43
2022-09-12T00:04:07.128Z,59.79
2022-09-12T00:06:36.713Z,59.27
2022-09-12T00:09:06.333Z,59.74
2022-09-12T00:11:36.556Z,60.13
2022-09-12T00:14:06.894Z,60.21
2022-09-12T00:16:36.467Z,60.22
2022-09-12T00:19:05.450Z,61.00
2022-09-12T00:21:34.185Z,60.63
2022-09-12T00:24:02.569Z,60.65
2022-09-12T00:26:30.971Z,61.04
2022-09-12T00:28:59.110Z,61.10
2022-09-12T00:31:29.632Z,61.46
2022-09-12T00:33:58.577Z,61.23
2022-09-12T00:36:27.531Z,61.06
2022-09-12T00:38:55.608Z,61.95
2022-09-12T00:41:25.968Z,61.92
2022-09-12T00:43:54.849Z,61.91
2022-09-12T00:46:33.680Z,61.70
2022-09-12T00:49:03.838Z,61.37
2022-09-12T00:51:33.803Z,61.47
2022-09-12T00:54:04.551Z,61.98
2022-09-12T00:56:32.910Z,61.64
2022-09-12T00:59:04.044Z,61.94
2022-09-12T01:01:34.011Z,61.67
2022-09-12T01:04:02.870Z,61.84
2022-09-12T01:06:34.426Z,61.99
2022-09-12T01:09:04.813Z,62.47
2022-09-12T01:11:34.202Z,62.36
2022-09-12T01:14:02.428Z,62.59
2022-09-12T01:16:30.534Z,62.40
2022-09-12T01:19:10.439Z,61.95
2022-09-12T01:21:42.001Z,62.46
2022-09-12T01:24:28.140Z,62.40
2022-09-12T01:27:10.213Z,62.68
2022-09-12T01:29:57.199Z,62.58
2022-09-12T01:32:30.983Z,62.72
2022-09-12T01:35:03.647Z,63.31
2022-09-12T01:37:37.872Z,62.99
2022-09-12T01:40:16.045Z,63.43
2022-09-12T01:42:50.902Z,64.25
2022-09-12T01:45:22.977Z,64.04
2022-09-12T01:47:56.677Z,63.70
2022-09-12T01:50:29.581Z,63.39
2022-09-12T01:53:00.682Z,63.74
2022-09-12T01:55:31.597Z,64.09
2022-09-12T01:58:02.778Z,64.25
2022-09-12T02:00:32.317Z,63.90
2022-09-12T02:03:04.929Z,63.93
2022-09-12T02:05:35.239Z,64.06
2022-09-12T02:08:06.240Z,64.06
2022-09-12T02:10:36.520Z,64.13
2022-09-12T02:13:09.621Z,64.09
2022-09-12T02:15:41.971Z,64.26
2022-09-12T02:18:14.628Z,64.09
2022-09-12T02:20:48.554Z,64.24
2022-09-12T02:23:20.730Z,64.60
2022-09-12T02:25:50.975Z,64.64
2022-09-12T02:28:25.876Z,65.14
2022-09-12T02:31:01.228Z,65.09
2022-09-12T02:36:25.055Z,65.25
2022-09-12T02:38:55.113Z,65.06
2022-09-12T02:41:26.536Z,65.26
2022-09-12T02:46:45.950Z,65.93
2022-09-12T02:51:59.636Z,66.33
2022-09-12T02:54:33.801Z,66.37
2022-09-12T02:57:02.650Z,66.42
2022-09-12T02:59:33.353Z,66.91
2022-09-12T03:02:11.836Z,67.05
2022-09-12T03:04:49.987Z,67.04
2022-09-12T03:07:31.021Z,66.74
2022-09-12T03:10:03.260Z,67.16
2022-09-12T03:12:40.153Z,67.30
2022-09-12T03:15:27.469Z,67.00
2022-09-12T03:18:04.605Z,67.56
2022-09-12T03:20:39.527Z,67.64
2022-09-12T03:23:14.364Z,67.55
2022-09-12T03:25:45.629Z,67.61
2022-09-12T03:28:16.431Z,68.25
2022-09-12T03:30:46.013Z,68.03
2022-09-12T03:33:15.029Z,68.76
2022-09-12T03:35:43.976Z,69.54
2022-09-12T03:38:14.048Z,69.47
2022-09-12T03:40:43.164Z,69.60
2022-09-12T03:43:11.910Z,69.42
2022-09-12T03:45:40.650Z,70.09
2022-09-12T03:48:10.087Z,69.96
2022-09-12T03:50:38.650Z,69.65
2022-09-12T03:53:07.618Z,69.92
2022-09-12T03:55:39.878Z,70.40
2022-09-12T03:58:08.884Z,70.73
2022-09-12T04:00:38.033Z,70.62
2022-09-12T04:03:06.955Z,70.57
2022-09-12T04:05:36.682Z,70.58
2022-09-12T04:08:05.333Z,70.30
2022-09-12T04:10:34.624Z,70.38
2022-09-12T04:16:02.207Z,70.46
2022-09-12T04:18:30.235Z,70.75
2022-09-12T04:21:01.997Z,70.38
2022-09-12T04:23:30.561Z,70.64
2022-09-12T04:26:00.975Z,70.65
2022-09-12T04:28:30.377Z,71.45
2022-09-12T04:31:04.199Z,71.09
2022-09-12T04:36:11.506Z,71.62
2022-09-12T04:38:49.974Z,72.27
2022-09-12T04:41:22.353Z,72.12
2022-09-12T04:43:53.572Z,71.80
2022-09-12T04:46:32.480Z,71.80
2022-09-12T04:49:03.195Z,72.02
2022-09-12T04:51:34.778Z,71.68
2022-09-12T04:54:05.447Z,71.76
2022-09-12T04:56:35.131Z,71.93
2022-09-12T04:59:04.601Z,71.69
2022-09-12T05:01:33.715Z,71.84
2022-09-12T05:04:05.004Z,72.05
2022-09-12T05:06:35.405Z,71.64
2022-09-12T05:09:05.995Z,71.77
2022-09-12T05:14:34.483Z,71.52
2022-09-12T05:17:17.392Z,71.44
2022-09-12T05:19:58.162Z,71.54
2022-09-12T05:25:36.337Z,71.75
2022-09-12T05:31:05.569Z,71.44
2022-09-12T05:33:36.348Z,71.37
2022-09-12T05:36:08.131Z,71.38
2022-09-12T05:38:38.708Z,71.25
2022-09-12T05:41:16.158Z,71.36
2022-09-12T05:43:46.292Z,71.39
2022-09-12T05:46:16.875Z,71.28
2022-09-12T05:48:48.270Z,71.05
2022-09-12T05:51:21.925Z,70.85
2022-09-12T05:53:52.543Z,71.00
2022-09-12T05:56:23.015Z,70.81
2022-09-12T05:58:56.185Z,70.67
2022-09-12T06:01:33.968Z,70.08
2022-09-12T06:06:41.898Z,69.80
2022-09-12T06:09:11.196Z,69.61
2022-09-12T06:11:40.956Z,69.21
2022-09-12T06:14:10.654Z,68.62
2022-09-12T06:16:40.196Z,68.32
2022-09-12T06:19:08.958Z,67.66
2022-09-12T06:21:40.144Z,67.19
2022-09-12T06:24:09.330Z,66.77
2022-09-12T06:26:37.923Z,66.21
2022-09-12T06:29:06.756Z,65.94
2022-09-12T06:31:36.169Z,65.23
2022-09-12T06:34:15.757Z,64.91
2022-09-12T06:36:59.614Z,64.76
2022-09-12T06:39:39.742Z,63.82
2022-09-12T06:44:55.300Z,63.14
2022-09-12T06:47:36.319Z,62.90
2022-09-12T06:56:26.243Z,61.42
2022-09-12T07:01:57.007Z,59.72
2022-09-12T07:04:25.326Z,58.96
2022-09-12T07:06:53.731Z,58.03
2022-09-12T07:09:23.367Z,58.69
2022-09-12T07:11:52.869Z,58.39
2022-09-12T07:14:21.281Z,58.83
2022-09-12T07:16:49.447Z,58.17
2022-09-12T07:19:18.232Z,57.83
2022-09-12T07:21:47.241Z,57.83
2022-09-12T07:36:44.937Z,56.65
2022-09-12T07:42:00.523Z,56.75
2022-09-12T07:47:17.959Z,56.72
2022-09-12T07:49:55.683Z,55.74
2022-09-12T07:52:42.631Z,56.01
2022-09-12T07:55:13.977Z,55.62
2022-09-12T07:57:55.529Z,56.31
2022-09-12T08:34:11.873Z,54.24
2022-09-12T08:49:03.547Z,53.36
2022-09-12T08:51:36.868Z,51.80
2022-09-12T08:54:07.826Z,51.56
2022-09-12T08:56:38.279Z,51.25
2022-09-12T08:59:06.997Z,50.78
2022-09-12T09:01:39.894Z,51.05
2022-09-12T09:04:36.449Z,50.37
2022-09-12T09:07:20.980Z,49.82
2022-09-12T09:09:56.203Z,50.13
2022-09-12T09:12:28.518Z,49.79
2022-09-12T09:15:14.982Z,49.40
2022-09-12T09:17:44.507Z,48.60
2022-09-12T09:20:22.469Z,49.20
2022-09-12T09:22:54.364Z,48.66
2022-09-12T09:25:25.120Z,48.49
2022-09-12T09:27:57.424Z,48.20
2022-09-12T09:30:25.546Z,48.36
2022-09-12T09:32:57.350Z,46.18
2022-09-12T09:35:36.201Z,46.38
2022-09-12T09:38:12.721Z,47.02
2022-09-12T09:40:44.719Z,46.74
2022-09-12T09:43:18.540Z,46.03
2022-09-12T09:45:47.966Z,45.55
2022-09-12T09:51:18.552Z,44.89
2022-09-12T09:59:46.063Z,43.51
2022-09-12T10:02:24.211Z,43.45
2022-09-12T10:04:55.358Z,43.48
2022-09-12T10:07:24.165Z,42.89
2022-09-12T10:10:05.869Z,41.84
2022-09-12T10:12:33.889Z,42.43
2022-09-12T10:15:05.845Z,42.40
2022-09-12T10:17:41.109Z,41.90
2022-09-12T10:20:30.249Z,42.16
2022-09-12T10:22:59.374Z,41.91
2022-09-12T10:25:28.049Z,41.55
2022-09-12T10:27:57.663Z,41.80
2022-09-12T10:30:29.249Z,41.64
2022-09-12T10:33:00.723Z,40.97
2022-09-12T10:35:31.354Z,41.35
2022-09-12T10:38:02.052Z,41.08
2022-09-12T10:40:32.762Z,41.24
2022-09-12T10:43:01.295Z,41.08
2022-09-12T10:45:32.333Z,40.05
2022-09-12T10:48:05.500Z,40.01
2022-09-12T10:50:38.067Z,39.75
2022-09-12T10:53:14.873Z,39.92
2022-09-12T10:55:44.844Z,40.02
2022-09-12T10:58:22.489Z,39.82
2022-09-12T11:00:58.581Z,39.85
2022-09-12T11:03:37.463Z,39.15
2022-09-12T11:06:06.510Z,38.99
2022-09-12T11:08:44.344Z,37.59
2022-09-12T11:11:18.762Z,37.45
2022-09-12T11:13:54.348Z,37.52
2022-09-12T11:16:28.624Z,36.54
2022-09-12T11:19:07.076Z,36.35
2022-09-12T11:21:45.350Z,35.37
2022-09-12T11:24:28.133Z,35.49
2022-09-12T11:27:02.012Z,34.88
2022-09-12T11:29:39.605Z,32.39
2022-09-12T11:32:16.079Z,31.90
2022-09-12T11:34:51.172Z,29.82
2022-09-12T11:37:33.163Z,29.40
2022-09-12T11:40:04.297Z,27.71
2022-09-12T11:42:34.758Z,28.21
2022-09-12T11:45:06.358Z,29.13
2022-09-12T11:47:56.654Z,29.45
2022-09-12T11:50:28.520Z,29.79
2022-09-12T11:52:59.228Z,30.77
2022-09-12T11:55:30.066Z,31.81
2022-09-12T11:57:59.310Z,32.82
2022-09-12T12:00:30.486Z,34.27
2022-09-12T12:03:02.734Z,34.72
2022-09-12T12:30:34.220Z,34.02
2022-09-12T12:33:28.462Z,33.45
2022-09-12T12:36:07.440Z,33.16
2022-09-12T12:38:37.398Z,33.41
2022-09-12T12:41:24.557Z,32.01
2022-09-12T12:43:53.450Z,29.85
2022-09-12T12:46:25.426Z,28.17
2022-09-12T12:48:55.938Z,26.03
2022-09-12T12:51:38.217Z,25.05
2022-09-12T12:54:12.843Z,23.86
2022-09-12T12:56:42.792Z,24.07
2022-09-12T12:59:16.972Z,24.76
2022-09-12T13:05:43.203Z,25.07
2022-09-12T13:08:14.116Z,26.49
2022-09-12T13:10:51.567Z,27.63
2022-09-12T13:13:25.700Z,28.58
2022-09-12T13:15:54.687Z,29.25
2022-09-12T13:18:28.309Z,29.68
2022-09-12T13:21:04.143Z,29.23
2022-09-12T13:23:37.413Z,28.88
2022-09-12T13:26:11.940Z,28.70
2022-09-12T13:28:40.494Z,28.95
2022-09-12T13:31:13.416Z,29.89
2022-09-12T13:33:42.811Z,30.45
2022-09-12T13:36:30.653Z,31.38
2022-09-12T13:39:05.888Z,32.12
2022-09-12T13:41:40.790Z,32.94
2022-09-12T13:44:13.375Z,33.32
2022-09-12T13:46:42.176Z,33.06
2022-09-12T13:49:18.281Z,32.75
2022-09-12T13:51:53.818Z,31.80
2022-09-12T13:54:24.561Z,31.16
2022-09-12T13:56:53.179Z,29.19
2022-09-12T13:59:23.625Z,27.31
2022-09-12T14:01:52.628Z,25.94
2022-09-12T14:04:39.482Z,25.33
2022-09-12T14:07:15.558Z,24.41
2022-09-12T14:09:45.988Z,23.98
2022-09-12T14:12:23.114Z,23.15
2022-09-12T14:17:36.973Z,23.44
2022-09-12T14:20:07.936Z,23.19
2022-09-12T14:22:39.706Z,22.67
2022-09-12T14:25:14.326Z,22.37
2022-09-12T14:27:47.865Z,22.59
2022-09-12T14:30:23.306Z,21.79
2022-09-12T14:33:18.122Z,22.02
2022-09-12T14:35:54.331Z,22.70
2022-09-12T14:38:35.739Z,24.62
2022-09-12T14:41:08.565Z,26.50
2022-09-12T14:43:38.829Z,28.19
2022-09-12T14:46:11.546Z,29.66
2022-09-12T14:48:45.110Z,32.07
2022-09-12T14:51:21.206Z,32.76
2022-09-12T14:53:54.071Z,32.92
2022-09-12T14:56:24.019Z,33.24
2022-09-12T14:58:53.836Z,32.93
2022-09-12T15:01:26.972Z,32.20
2022-09-12T15:03:57.420Z,32.55
2022-09-12T15:06:28.947Z,31.55
2022-09-12T15:09:00.223Z,31.26
2022-09-12T15:11:28.982Z,30.25
2022-09-12T15:13:57.563Z,30.17
2022-09-12T15:16:26.528Z,31.11
2022-09-12T15:18:54.615Z,32.26
2022-09-12T15:21:22.891Z,31.87
2022-09-12T15:23:52.326Z,32.47
2022-09-12T15:26:23.072Z,32.41
2022-09-12T15:28:57.066Z,34.24
2022-09-12T15:31:26.552Z,36.21
2022-09-12T15:33:56.321Z,36.78
2022-09-12T16:14:24.852Z,44.89
2022-09-12T16:52:27.488Z,49.23
2022-09-12T16:57:41.035Z,48.92
2022-09-12T17:00:11.022Z,49.77
2022-09-12T17:02:41.322Z,50.38
2022-09-12T17:05:16.904Z,49.10
2022-09-12T17:07:56.638Z,49.27
2022-09-12T17:19:19.979Z,48.50
2022-09-12T17:24:37.584Z,48.71
2022-09-12T17:27:07.650Z,48.42
2022-09-12T17:29:48.985Z,49.04
2022-09-12T17:32:25.276Z,49.05
2022-09-12T17:37:41.478Z,48.14
2022-09-12T17:40:14.267Z,48.39
2022-09-12T17:42:45.814Z,48.27
2022-09-12T18:06:38.512Z,48.69
2022-09-12T18:09:33.409Z,48.56
2022-09-12T18:12:05.691Z,48.80
2022-09-12T18:14:34.122Z,48.54
2022-09-12T18:17:12.001Z,48.04
2022-09-12T18:19:53.355Z,48.34
2022-09-12T18:22:25.180Z,48.21
2022-09-12T18:27:34.738Z,48.24
2022-09-12T18:30:20.465Z,49.14
2022-09-12T18:33:04.434Z,48.69
2022-09-12T18:35:36.033Z,48.58
2022-09-12T18:38:18.243Z,48.52
2022-09-12T18:46:24.853Z,48.85
2022-09-12T18:48:58.325Z,48.73
2022-09-12T18:51:42.989Z,49.27
2022-09-12T18:54:21.605Z,49.36
2022-09-12T18:56:52.062Z,49.22
2022-09-12T18:59:21.916Z,48.89
2022-09-12T19:01:54.062Z,49.44
2022-09-12T19:04:24.895Z,49.45
2022-09-12T19:06:58.804Z,49.60
2022-09-12T19:09:42.492Z,49.30
2022-09-12T19:12:14.140Z,49.38
2022-09-12T19:17:37.616Z,49.34
2022-09-12T19:20:11.346Z,49.21
2022-09-12T19:22:41.438Z,49.86
2022-09-12T19:25:13.483Z,50.29
2022-09-12T19:27:44.639Z,49.92
2022-09-12T19:30:13.646Z,50.36
2022-09-12T19:32:42.473Z,50.31
2022-09-12T19:35:16.088Z,50.36
2022-09-12T19:37:45.647Z,50.38
2022-09-12T19:40:23.351Z,50.37
2022-09-12T19:46:07.203Z,50.75
2022-09-12T19:53:29.875Z,50.65
2022-09-12T19:56:09.121Z,50.84
2022-09-12T19:58:38.628Z,50.72
2022-09-12T20:01:11.749Z,50.84
2022-09-12T20:03:40.264Z,51.77
2022-09-12T20:06:15.005Z,51.54
2022-09-12T20:08:55.195Z,51.52
2022-09-12T20:14:33.952Z,51.00
2022-09-12T20:17:41.832Z,50.99
2022-09-12T20:20:11.087Z,51.21
2022-09-12T20:22:40.446Z,50.96
2022-09-12T20:25:09.729Z,51.48
2022-09-12T20:27:47.748Z,51.33
2022-09-12T20:30:20.306Z,51.68
2022-09-12T20:32:55.449Z,51.60
2022-09-12T20:35:30.734Z,51.39
2022-09-12T20:38:00.353Z,51.55
2022-09-12T20:40:41.240Z,51.42
2022-09-12T20:50:15.893Z,51.67
2022-09-12T20:53:04.676Z,52.20
2022-09-12T20:56:00.714Z,51.73
2022-09-12T21:01:53.816Z,51.92
2022-09-12T21:04:24.920Z,51.73
2022-09-12T21:06:54.565Z,51.86
2022-09-12T21:12:26.545Z,51.82
2022-09-12T21:14:54.710Z,51.94
2022-09-12T21:17:24.977Z,51.98
2022-09-12T21:19:53.028Z,52.00
2022-09-12T21:22:27.609Z,51.87
2022-09-12T21:24:55.766Z,52.66
2022-09-12T21:27:23.851Z,52.56
2022-09-12T21:29:52.073Z,52.53
2022-09-12T21:32:20.579Z,52.47
2022-09-12T21:34:50.484Z,52.23
2022-09-12T21:37:18.896Z,52.20
2022-09-12T21:39:47.102Z,52.16
2022-09-12T21:42:15.083Z,52.59
2022-09-12T21:44:43.127Z,52.26
2022-09-12T21:47:11.163Z,52.09
2022-09-12T21:49:39.372Z,52.18
2022-09-12T21:52:09.006Z,52.01
2022-09-12T21:54:37.085Z,52.05
2022-09-12T21:57:05.386Z,52.01
2022-09-12T21:59:33.608Z,51.99
2022-09-12T22:02:01.626Z,52.25
2022-09-12T22:04:33.137Z,52.50
2022-09-12T22:07:02.662Z,52.22
2022-09-12T22:09:33.104Z,52.09
2022-09-12T22:12:01.410Z,52.08
2022-09-12T22:14:29.718Z,51.91
2022-09-12T22:16:58.876Z,52.16
2022-09-12T22:19:27.096Z,51.95
2022-09-12T22:22:12.819Z,51.84
2022-09-12T22:24:42.301Z,52.17
2022-09-12T22:27:10.265Z,52.23
2022-09-12T22:29:38.237Z,52.30
2022-09-12T22:32:06.497Z,52.45
2022-09-12T22:34:34.873Z,52.28
2022-09-12T22:37:02.898Z,52.39
2022-09-12T22:39:30.949Z,52.83
2022-09-12T22:42:01.756Z,52.99
2022-09-12T22:44:29.809Z,52.80
2022-09-12T22:46:58.026Z,52.66
2022-09-12T22:49:26.302Z,52.46
2022-09-12T22:51:54.554Z,52.42
2022-09-12T22:54:22.633Z,52.47
2022-09-12T22:56:50.608Z,52.33
2022-09-12T22:59:20.756Z,52.59
2022-09-12T23:01:48.784Z,52.69
2022-09-12T23:04:17.044Z,52.65
2022-09-12T23:06:45.098Z,52.57
2022-09-12T23:09:13.325Z,52.93
2022-09-12T23:11:41.300Z,52.79
2022-09-12T23:14:09.498Z,52.77
2022-09-12T23:16:39.320Z,52.85
2022-09-12T23:19:07.457Z,52.80
2022-09-12T23:21:35.513Z,53.11
2022-09-12T23:24:03.904Z,52.86
2022-09-12T23:26:32.683Z,53.07
2022-09-12T23:29:02.149Z,53.08
2022-09-12T23:31:31.243Z,53.03
2022-09-12T23:34:02.352Z,53.23
2022-09-12T23:36:30.842Z,52.88
2022-09-12T23:38:59.275Z,53.06
2022-09-12T23:41:27.301Z,53.51
2022-09-12T23:43:55.559Z,53.30
2022-09-12T23:46:23.733Z,53.48
2022-09-12T23:48:53.485Z,53.42
2022-09-12T23:51:23.286Z,53.54
2022-09-12T23:53:51.692Z,53.51
2022-09-12T23:56:19.626Z,53.61
2022-09-12T23:58:47.657Z,53.81
